Time;durP1;ratioP1;P1;durP2;ratioP2;P2;SDS_P1;SDS_P2;PMS_P1;PMS_P2;Temp;Humidity;BMP_temperature;BMP_pressure;BME280_temperature;BME280_humidity;BME280_pressure;Samples;Min_cycle;Max_cycle;Signal;HPM_P1;HPM_P2
2022/06/23 00:02:06;;;;;;;10.73;9.20;;;;;;;25.19;62.79;98391.22;6972555;28;20231;-78
2022/06/23 00:05:30;;;;;;;11.07;7.93;;;;;;;25.11;62.67;98389.19;6972795;28;20214;-78
2022/06/23 00:08:51;;;;;;;8.83;7.93;;;;;;;25.13;62.90;98372.34;6970729;28;20293;-78
2022/06/23 00:12:23;;;;;;;8.97;8.17;;;;;;;25.13;62.59;98386.94;6973184;28;20232;-78
2022/06/23 00:15:45;;;;;;;10.77;8.17;;;;;;;24.90;62.62;98376.94;6967233;28;20253;-77
2022/06/23 00:19:10;;;;;;;10.97;8.03;;;;;;;24.69;63.41;98374.91;6971864;28;20294;-79
2022/06/23 00:22:33;;;;;;;10.27;8.23;;;;;;;24.93;62.75;98398.41;6972428;28;20261;-78
2022/06/23 00:25:58;;;;;;;13.40;9.37;;;;;;;24.54;63.30;98378.75;6972502;28;20203;-77
2022/06/23 00:29:23;;;;;;;9.33;8.37;;;;;;;24.81;63.02;98373.28;6971769;28;20216;-78
2022/06/23 00:32:44;;;;;;;11.43;9.20;;;;;;;24.84;63.04;98394.72;6971914;28;20319;-78
2022/06/23 00:36:15;;;;;;;9.60;8.60;;;;;;;24.73;63.04;98385.03;6972277;28;20693;-78
2022/06/23 00:39:39;;;;;;;13.33;9.53;;;;;;;24.38;63.57;98362.81;6971451;28;20193;-78
2022/06/23 00:43:03;;;;;;;11.30;8.70;;;;;;;24.35;62.85;98374.44;6972077;28;20233;-78
2022/06/23 00:46:28;;;;;;;10.33;8.80;;;;;;;24.36;63.21;98363.13;6974347;28;20220;-78
2022/06/23 00:49:53;;;;;;;12.20;7.67;;;;;;;24.35;62.65;98377.19;6957727;28;20245;-77
2022/06/23 00:53:17;;;;;;;15.07;9.07;;;;;;;24.20;63.41;98375.53;6976081;28;20773;-78
2022/06/23 00:56:46;;;;;;;12.80;9.23;;;;;;;24.26;63.04;98374.31;6975576;28;20254;-78
2022/06/23 01:00:09;;;;;;;9.50;8.33;;;;;;;24.40;62.85;98383.44;6977576;28;20278;-78
2022/06/23 01:03:35;;;;;;;12.07;10.20;;;;;;;24.43;63.23;98379.28;6977777;28;20247;-78
2022/06/23 01:07:00;;;;;;;13.80;9.90;;;;;;;24.43;62.96;98391.09;6962433;28;20905;-78
2022/06/23 01:10:28;;;;;;;11.20;9.80;;;;;;;24.21;63.41;98390.97;6949933;28;20698;-78
2022/06/23 01:13:56;;;;;;;13.43;10.20;;;;;;;24.22;62.79;98365.06;6949687;28;20222;-78
2022/06/23 01:17:20;;;;;;;12.83;10.50;;;;;;;24.36;62.66;98376.91;6958572;28;20676;-78
2022/06/23 01:20:51;;;;;;;10.70;9.60;;;;;;;24.15;63.79;98386.69;6976577;28;20263;-77
2022/06/23 01:24:23;;;;;;;10.70;9.60;;;;;;;24.28;63.42;98390.56;6976564;28;20290;-77
2022/06/23 01:28:00;;;;;;;10.93;9.83;;;;;;;24.19;63.21;98386.88;6974911;28;20229;-78
2022/06/23 01:31:24;;;;;;;10.97;9.60;;;;;;;23.95;62.89;98411.78;6976541;28;20289;-78
2022/06/23 01:34:49;;;;;;;10.83;9.70;;;;;;;23.37;64.95;98420.66;6977028;28;20649;-77
2022/06/23 01:38:15;;;;;;;11.67;8.80;;;;;;;23.28;65.26;98414.16;6975859;28;20319;-77
2022/06/23 01:41:38;;;;;;;14.03;10.10;;;;;;;23.61;64.53;98430.47;6976677;28;20228;-76
2022/06/23 01:45:04;;;;;;;10.77;9.67;;;;;;;23.84;63.59;98417.75;6976098;28;20275;-77
2022/06/23 01:52:20;;;;;;;12.53;9.43;;;;;;;23.26;63.67;98414.47;6951334;28;20302;-77
2022/06/23 01:55:55;;;;;;;11.87;9.07;;;;;;;23.26;64.62;98444.72;6976163;28;20262;-78
2022/06/23 01:59:25;;;;;;;14.20;9.50;;;;;;;23.40;64.57;98431.06;6959674;28;20304;-77
2022/06/23 02:02:53;;;;;;;14.13;9.33;;;;;;;23.48;64.18;98430.41;6948779;28;20292;-77
2022/06/23 02:06:18;;;;;;;11.80;10.03;;;;;;;23.54;64.08;98405.25;6976237;28;20198;-77
2022/06/23 02:09:42;;;;;;;10.53;9.17;;;;;;;23.75;62.96;98422.28;6948733;28;20203;-77
2022/06/23 02:13:12;;;;;;;12.07;10.07;;;;;;;22.90;65.10;98421.50;6948257;28;20258;-76
2022/06/23 02:16:40;;;;;;;11.40;10.10;;;;;;;23.19;65.06;98425.00;6948227;28;20215;-77
2022/06/23 02:20:17;;;;;;;13.90;9.70;;;;;;;23.52;64.08;98415.75;6947627;28;20194;-77
2022/06/23 02:23:42;;;;;;;12.30;9.60;;;;;;;23.40;62.80;98423.63;6948006;28;20227;-77
2022/06/23 02:27:13;;;;;;;12.00;8.60;;;;;;;23.35;63.11;98417.38;6947969;28;20875;-77
2022/06/23 02:30:36;;;;;;;10.90;9.67;;;;;;;22.71;64.25;98430.81;6947315;28;20233;-77
2022/06/23 02:34:03;;;;;;;12.67;10.37;;;;;;;22.47;65.67;98427.22;6947809;28;20316;-77
2022/06/23 02:37:56;;;;;;;12.50;10.00;;;;;;;22.97;64.90;98429.41;6947318;28;20241;-78
2022/06/23 02:41:21;;;;;;;12.80;10.00;;;;;;;22.87;63.82;98435.84;6947235;28;20314;-77
2022/06/23 02:44:56;;;;;;;14.97;10.40;;;;;;;22.98;64.41;98437.38;6946734;28;20264;-77
2022/06/23 02:48:57;;;;;;;11.10;8.60;;;;;;;22.85;63.73;98451.00;6946505;28;20558;-77
2022/06/23 02:52:45;;;;;;;8.83;7.93;;;;;;;22.94;62.90;98450.06;6934642;28;20315;-77
2022/06/23 02:56:30;;;;;;;10.13;8.27;;;;;;;22.92;62.69;98441.28;6939896;28;20371;-77
2022/06/23 02:59:55;;;;;;;10.67;9.57;;;;;;;22.39;63.49;98453.38;6956821;28;20234;-77
2022/06/23 03:03:23;;;;;;;12.57;9.83;;;;;;;22.67;64.03;98458.06;6976022;28;20238;-78
2022/06/23 03:06:48;;;;;;;11.47;9.63;;;;;;;22.59;64.05;98466.13;6967009;28;20204;-77
2022/06/23 03:10:14;;;;;;;12.03;9.20;;;;;;;22.56;64.05;98462.03;6965633;28;20194;-77
2022/06/23 03:13:41;;;;;;;10.13;8.87;;;;;;;22.76;63.87;98456.31;6977922;28;20240;-78
2022/06/23 03:17:06;;;;;;;14.30;9.17;;;;;;;22.97;63.41;98443.16;6971076;28;20208;-80
2022/06/23 03:20:37;;;;;;;11.50;8.87;;;;;;;23.07;62.99;98434.78;6949582;28;20261;-78
2022/06/23 03:24:04;;;;;;;11.13;8.60;;;;;;;22.97;63.25;98454.97;6953864;28;20237;-78
2022/06/23 03:27:29;;;;;;;9.73;8.73;;;;;;;22.32;64.14;98447.41;6956183;28;20218;-78
2022/06/23 03:30:55;;;;;;;11.67;8.73;;;;;;;22.64;63.58;98460.56;6948198;28;20261;-78
2022/06/23 03:34:22;;;;;;;11.53;8.57;;;;;;;22.82;63.43;98459.81;6950000;28;20234;-78
2022/06/23 03:37:50;;;;;;;14.53;8.93;;;;;;;23.04;63.14;98455.44;6946740;28;20210;-78
2022/06/23 03:44:56;;;;;;;12.80;9.67;;;;;;;22.66;64.97;98480.34;6949320;28;20209;-78
2022/06/23 03:48:23;;;;;;;14.27;9.53;;;;;;;22.65;64.40;98459.47;6947453;28;20212;-78
2022/06/23 03:51:51;;;;;;;15.03;9.40;;;;;;;23.13;63.13;98461.13;6946638;28;20227;-78
2022/06/23 03:55:18;;;;;;;8.87;7.97;;;;;;;23.27;63.38;98479.41;6947908;28;20666;-78
2022/06/23 03:58:43;;;;;;;10.47;8.13;;;;;;;23.17;62.66;98451.19;6974028;28;20218;-78
2022/06/23 04:02:12;;;;;;;12.90;8.73;;;;;;;23.19;62.40;98477.28;6979854;28;20249;-79
2022/06/23 04:06:00;;;;;;;9.83;7.83;;;;;;;22.77;62.44;98435.97;6949544;28;20286;-79
2022/06/23 04:09:25;;;;;;;10.17;8.40;;;;;;;23.51;61.89;98482.09;6966719;28;20187;-77
2022/06/23 04:12:51;;;;;;;8.43;7.63;;;;;;;23.42;62.05;98487.44;6991552;28;20229;-78
2022/06/23 04:16:13;;;;;;;9.00;7.10;;;;;;;23.27;62.01;98446.38;6975900;28;20277;-78
2022/06/23 04:19:36;;;;;;;10.73;7.60;;;;;;;23.47;61.79;98490.13;6973149;28;20207;-78
2022/06/23 04:23:01;;;;;;;10.70;7.77;;;;;;;23.11;62.10;98483.41;6973296;28;20273;-77
2022/06/23 04:26:27;;;;;;;11.03;8.70;;;;;;;22.47;65.16;98491.25;6973699;28;20605;-77
2022/06/23 04:29:51;;;;;;;15.47;8.53;;;;;;;22.50;66.38;98476.09;6972938;28;20715;-77
2022/06/23 04:33:17;;;;;;;12.50;8.60;;;;;;;23.07;65.04;98496.09;6973170;28;20253;-78
2022/06/23 04:36:44;;;;;;;14.50;8.13;;;;;;;23.24;63.71;98495.69;6972656;28;20374;-78
2022/06/23 04:40:15;;;;;;;9.63;7.23;;;;;;;23.75;62.55;98485.59;6972545;28;20196;-77
2022/06/23 04:43:40;;;;;;;11.53;7.73;;;;;;;23.89;61.79;98475.53;6972418;28;20321;-77
2022/06/23 04:47:05;;;;;;;11.37;7.10;;;;;;;23.96;60.77;98438.22;6972635;28;20192;-78
2022/06/23 04:50:39;;;;;;;9.90;6.70;;;;;;;24.12;60.80;98474.63;6972245;28;20334;-78
2022/06/23 04:54:05;;;;;;;11.17;7.17;;;;;;;23.85;61.18;98468.94;6972869;28;20248;-78
2022/06/23 04:57:32;;;;;;;10.37;7.40;;;;;;;23.94;60.99;98487.28;6973459;28;20214;-77
2022/06/23 05:00:54;;;;;;;14.93;8.13;;;;;;;23.75;61.88;98497.44;6971392;28;20245;-77
2022/06/23 05:04:18;;;;;;;12.67;7.63;;;;;;;23.58;63.21;98499.88;6954655;28;20215;-77
2022/06/23 05:07:43;;;;;;;10.07;7.77;;;;;;;23.74;61.67;98483.97;6968164;28;20224;-77
2022/06/23 05:11:07;;;;;;;9.70;7.67;;;;;;;23.77;62.21;98484.19;6973314;28;20255;-78
2022/06/23 05:14:34;;;;;;;10.23;7.87;;;;;;;24.05;62.33;98479.66;6972772;28;20227;-77
2022/06/23 05:17:59;;;;;;;13.60;7.47;;;;;;;24.46;61.21;98491.66;6972648;28;20226;-77
2022/06/23 05:21:23;;;;;;;7.07;6.47;;;;;;;24.64;60.69;98480.63;6972836;28;20222;-78
2022/06/23 05:24:46;;;;;;;11.23;7.43;;;;;;;24.76;60.87;98480.94;6973227;28;20622;-78
2022/06/23 05:28:14;;;;;;;9.50;7.57;;;;;;;25.21;60.05;98491.09;6972635;28;20674;-78
2022/06/23 05:31:38;;;;;;;11.33;7.27;;;;;;;25.43;59.66;98474.63;6973538;28;20788;-78
2022/06/23 05:35:06;;;;;;;9.80;7.30;;;;;;;25.88;59.28;98490.19;6978144;28;20206;-77
2022/06/23 05:38:33;;;;;;;14.83;7.20;;;;;;;26.30;57.39;98484.22;6977835;28;20846;-78
2022/06/23 05:41:59;;;;;;;10.67;5.90;;;;;;;26.99;55.28;98491.84;6979598;28;20267;-79
2022/06/23 05:45:23;;;;;;;10.83;6.07;;;;;;;27.64;53.42;98491.91;6968201;28;20694;-79
2022/06/23 05:48:56;;;;;;;11.87;6.03;;;;;;;27.72;53.36;98483.63;6964587;28;20292;-80
2022/06/23 05:52:22;;;;;;;9.23;5.13;;;;;;;28.19;50.98;98479.94;6978709;28;20230;-79
2022/06/23 05:55:50;;;;;;;10.43;5.23;;;;;;;28.48;50.60;98485.66;6979464;28;20211;-79
2022/06/23 05:59:17;;;;;;;10.70;4.67;;;;;;;28.83;49.74;98489.19;6981326;28;20639;-79
2022/06/23 06:02:45;;;;;;;7.83;5.10;;;;;;;28.75;48.99;98495.56;6988060;28;20235;-79
2022/06/23 06:06:08;;;;;;;13.20;4.90;;;;;;;28.69;48.97;98483.00;6989646;28;20206;-79
2022/06/23 06:09:40;;;;;;;6.77;4.20;;;;;;;29.09;47.94;98501.88;6984869;28;20207;-79
2022/06/23 06:13:03;;;;;;;7.73;4.90;;;;;;;28.44;49.94;98500.50;6971231;28;20259;-79
2022/06/23 06:16:25;;;;;;;10.03;4.80;;;;;;;28.95;48.49;98478.19;6982081;28;20227;-79
2022/06/23 06:19:47;;;;;;;9.40;4.07;;;;;;;29.14;47.71;98487.78;6984860;28;20226;-79
2022/06/23 06:23:14;;;;;;;8.33;3.83;;;;;;;29.64;46.36;98469.25;6978895;28;20323;-79
2022/06/23 06:26:39;;;;;;;7.40;4.53;;;;;;;29.47;46.58;98488.75;6976322;28;20204;-80
2022/06/23 06:30:01;;;;;;;8.27;4.93;;;;;;;29.60;45.28;98492.50;6964979;28;20322;-79
2022/06/23 06:33:30;;;;;;;7.40;4.73;;;;;;;29.35;45.45;98477.56;6966003;28;20224;-79
2022/06/23 06:36:53;;;;;;;6.93;3.80;;;;;;;30.05;45.57;98501.81;6977038;28;20211;-79
2022/06/23 06:40:16;;;;;;;8.40;4.33;;;;;;;30.28;45.21;98501.19;6975156;28;20205;-79
2022/06/23 06:43:38;;;;;;;7.93;4.13;;;;;;;30.74;43.81;98500.94;6969310;28;20274;-78
2022/06/23 06:47:00;;;;;;;9.13;4.50;;;;;;;30.13;44.49;98498.22;6976607;28;20217;-78
2022/06/23 06:50:33;;;;;;;11.67;4.03;;;;;;;30.64;43.71;98486.59;6973831;28;20210;-78
2022/06/23 06:53:57;;;;;;;8.97;4.03;;;;;;;30.98;42.96;98520.50;6949161;28;20359;-78
2022/06/23 06:57:25;;;;;;;8.83;4.30;;;;;;;30.35;44.03;98512.56;6948794;28;20232;-78
2022/06/23 07:00:53;;;;;;;8.33;5.07;;;;;;;29.48;45.45;98518.16;6948628;28;20209;-78
2022/06/23 07:04:18;;;;;;;8.53;4.67;;;;;;;29.48;46.00;98503.47;6948792;28;20311;-78
2022/06/23 07:07:43;;;;;;;11.90;4.93;;;;;;;29.60;46.61;98501.63;6955876;28;20209;-80
2022/06/23 07:11:10;;;;;;;13.97;4.80;;;;;;;29.71;46.00;98508.44;6965400;28;20217;-78
2022/06/23 07:14:38;;;;;;;10.57;4.33;;;;;;;31.02;42.85;98515.03;6975924;28;20190;-78
2022/06/23 07:18:05;;;;;;;11.37;4.70;;;;;;;31.32;42.25;98492.22;6973055;28;20236;-79
2022/06/23 07:21:31;;;;;;;10.17;3.73;;;;;;;30.87;42.93;98498.97;6960292;28;20247;-78
2022/06/23 07:24:56;;;;;;;9.87;3.80;;;;;;;31.46;41.97;98503.88;6989751;28;20683;-78
2022/06/23 07:28:23;;;;;;;9.70;4.13;;;;;;;31.57;41.49;98502.25;6964267;28;20202;-78
2022/06/23 07:31:55;;;;;;;9.33;3.60;;;;;;;31.95;40.87;98499.09;6962408;28;20233;-78
2022/06/23 07:35:27;;;;;;;7.47;4.10;;;;;;;31.78;41.50;98457.53;6967061;28;20235;-78
2022/06/23 07:38:51;;;;;;;9.33;3.53;;;;;;;31.67;40.98;98479.44;6958077;28;20663;-78
2022/06/23 07:42:17;;;;;;;9.80;4.07;;;;;;;31.99;40.39;98481.31;6960256;28;20233;-78
2022/06/23 07:45:44;;;;;;;10.10;3.83;;;;;;;31.98;39.92;98493.63;6975838;28;20701;-78
2022/06/23 07:49:08;;;;;;;11.47;3.97;;;;;;;31.52;41.00;98468.19;6973488;28;20198;-77
2022/06/23 07:52:29;;;;;;;8.87;3.90;;;;;;;31.19;41.79;98476.69;6952528;28;20217;-78
2022/06/23 07:55:51;;;;;;;10.90;3.40;;;;;;;31.00;41.61;98479.19;6962838;28;20676;-77
2022/06/23 07:59:17;;;;;;;9.93;3.73;;;;;;;31.48;40.61;98479.25;6947671;28;20674;-77
2022/06/23 08:02:43;;;;;;;8.70;3.80;;;;;;;32.06;40.21;98473.16;6947038;28;20737;-77
2022/06/23 08:06:10;;;;;;;10.20;4.10;;;;;;;32.72;37.63;98451.16;6954554;28;20277;-77
2022/06/23 08:09:35;;;;;;;7.43;3.70;;;;;;;32.44;38.87;98472.69;6965067;28;20197;-77
2022/06/23 08:12:59;;;;;;;8.90;4.47;;;;;;;31.66;39.28;98466.69;6947664;28;20230;-77
2022/06/23 08:20:01;;;;;;;8.87;4.27;;;;;;;31.86;39.69;98453.78;6946328;28;20575;-77
2022/06/23 08:23:25;;;;;;;8.43;4.20;;;;;;;32.38;39.87;98449.78;6957420;28;20255;-77
2022/06/23 08:26:48;;;;;;;6.37;3.33;;;;;;;32.71;38.03;98443.94;6958788;28;20225;-77
2022/06/23 08:30:12;;;;;;;9.30;4.27;;;;;;;29.97;43.09;98442.38;6973514;28;20223;-77
2022/06/23 08:33:34;;;;;;;10.20;3.83;;;;;;;32.39;39.50;98437.50;6956698;28;20227;-77
2022/06/23 08:37:00;;;;;;;7.40;4.63;;;;;;;32.62;38.57;98437.72;6971793;28;20259;-77
2022/06/23 08:40:32;;;;;;;10.20;4.30;;;;;;;32.21;38.97;98426.94;6972627;28;20209;-77
2022/06/23 08:43:59;;;;;;;6.57;3.70;;;;;;;32.68;37.57;98408.34;6974196;28;20284;-80
2022/06/23 08:47:23;;;;;;;9.87;3.37;;;;;;;32.55;38.34;98418.78;6964771;28;20214;-79
2022/06/23 08:50:47;;;;;;;8.17;4.10;;;;;;;31.45;39.56;98429.78;6964035;28;20244;-78
2022/06/23 08:54:14;;;;;;;9.13;4.47;;;;;;;30.36;41.80;98427.16;6952864;28;20328;-78
2022/06/23 08:57:40;;;;;;;8.60;3.83;;;;;;;31.10;41.49;98434.16;6952230;28;20296;-79
2022/06/23 09:01:08;;;;;;;9.70;3.87;;;;;;;31.31;40.99;98422.94;6992460;28;20233;-79
2022/06/23 09:04:38;;;;;;;9.80;4.07;;;;;;;32.62;38.90;98407.00;6976882;28;20213;-78
2022/06/23 09:08:05;;;;;;;13.17;4.40;;;;;;;33.62;37.52;98415.56;6948226;28;20654;-77
2022/06/23 09:11:33;;;;;;;9.97;4.67;;;;;;;34.23;36.33;98408.94;6978229;28;20351;-78
2022/06/23 09:15:29;;;;;;;8.07;4.07;;;;;;;34.29;35.25;98403.88;6979171;28;20303;-80
2022/06/23 09:19:19;;;;;;;9.37;4.70;;;;;;;34.65;34.71;98401.41;6959414;28;20247;-77
2022/06/23 09:23:06;;;;;;;9.57;3.90;;;;;;;34.82;35.08;98386.13;6972123;28;20256;-78
2022/06/23 09:26:38;;;;;;;8.93;4.10;;;;;;;35.01;33.55;98391.69;6954053;28;20653;-78
2022/06/23 09:30:05;;;;;;;7.87;3.90;;;;;;;34.94;33.87;98389.56;6951020;28;20198;-78
2022/06/23 09:33:35;;;;;;;7.43;4.40;;;;;;;32.18;36.90;98394.16;6950244;28;20281;-78
2022/06/23 09:37:12;;;;;;;13.10;4.17;;;;;;;33.62;35.44;98387.59;6973914;28;20717;-78
2022/06/23 09:40:38;;;;;;;8.10;4.13;;;;;;;33.39;34.86;98379.09;6978398;28;20197;-78
2022/06/23 09:44:25;;;;;;;8.00;4.17;;;;;;;32.92;36.33;98389.50;6951111;28;20226;-78
2022/06/23 09:48:13;;;;;;;11.77;4.77;;;;;;;32.71;35.63;98380.53;6949175;28;20248;-78
2022/06/23 09:52:02;;;;;;;14.00;7.43;;;;;;;32.34;36.43;98381.09;6964302;28;20239;-78
2022/06/23 09:55:47;;;;;;;10.07;4.90;;;;;;;34.01;33.94;98364.13;6955531;28;20208;-77
2022/06/23 09:59:32;;;;;;;23.70;17.63;;;;;;;33.81;35.07;98365.28;6949970;28;20308;-77
2022/06/23 10:03:12;;;;;;;31.73;17.40;;;;;;;32.61;36.60;98364.28;6953780;28;20322;-78
2022/06/23 10:06:43;;;;;;;37.40;22.33;;;;;;;33.73;36.00;98352.28;6967705;28;20199;-78
2022/06/23 10:10:16;;;;;;;13.00;8.43;;;;;;;34.29;34.50;98356.28;6964132;28;20202;-77
2022/06/23 10:14:04;;;;;;;13.20;8.50;;;;;;;34.30;34.92;98355.94;6971296;28;20314;-77
2022/06/23 10:17:50;;;;;;;11.07;5.73;;;;;;;33.95;35.32;98348.81;6952005;28;20608;-77
2022/06/23 10:21:24;;;;;;;9.43;5.10;;;;;;;34.24;33.71;98343.38;6968165;28;20812;-77
2022/06/23 10:25:19;;;;;;;11.47;5.50;;;;;;;33.26;35.46;98349.59;6969038;28;20210;-78
2022/06/23 10:28:53;;;;;;;12.30;6.83;;;;;;;34.70;33.15;98335.84;6976926;28;20216;-77
2022/06/23 10:32:36;;;;;;;14.40;7.97;;;;;;;32.02;37.75;98346.69;6972998;28;20302;-77
2022/06/23 10:36:21;;;;;;;18.27;11.57;;;;;;;32.47;37.29;98346.34;6968731;28;20226;-77
2022/06/23 10:40:24;;;;;;;8.03;4.80;;;;;;;32.46;37.56;98339.97;6966509;28;20284;-77
2022/06/23 10:43:58;;;;;;;9.90;4.10;;;;;;;34.92;32.95;98340.69;6951165;28;20371;-77
2022/06/23 10:47:31;;;;;;;9.83;4.13;;;;;;;34.92;32.91;98337.88;6973375;28;20240;-78
2022/06/23 10:51:03;;;;;;;8.83;4.17;;;;;;;34.65;32.58;98333.38;6949462;28;20201;-76
2022/06/23 10:54:45;;;;;;;9.80;4.17;;;;;;;34.60;32.97;98331.69;6949808;28;20211;-77
2022/06/23 10:58:25;;;;;;;10.37;3.67;;;;;;;35.49;31.39;98327.16;6949271;28;20212;-77
2022/06/23 11:02:21;;;;;;;7.27;4.07;;;;;;;33.05;34.78;98321.16;6976118;28;20344;-77
2022/06/23 11:05:50;;;;;;;6.10;3.50;;;;;;;35.01;31.23;98321.63;6965437;28;20252;-77
2022/06/23 11:09:33;;;;;;;8.07;4.50;;;;;;;35.69;30.15;98300.59;6975979;28;20280;-77
2022/06/23 11:13:03;;;;;;;8.63;3.30;;;;;;;36.07;28.15;98277.03;6972719;28;20231;-78
2022/06/23 11:16:30;;;;;;;7.50;3.10;;;;;;;36.35;28.26;98295.00;6964412;28;20198;-77
2022/06/23 11:20:06;;;;;;;6.80;3.03;;;;;;;36.14;26.63;98285.53;6948224;28;20245;-76
2022/06/23 11:23:33;;;;;;;9.53;3.00;;;;;;;36.47;25.35;98275.06;6949232;28;20227;-77
2022/06/23 11:27:05;;;;;;;8.70;3.53;;;;;;;36.15;26.29;98261.88;6967780;28;20327;-77
2022/06/23 11:30:30;;;;;;;11.70;3.40;;;;;;;36.88;25.27;98262.59;6954800;28;20668;-77
2022/06/23 11:34:11;;;;;;;7.97;3.43;;;;;;;36.63;25.71;98264.41;6960795;28;20257;-76
2022/06/23 11:37:54;;;;;;;9.53;3.60;;;;;;;37.15;24.13;98261.22;6947917;28;20231;-81
2022/06/23 11:41:28;;;;;;;9.80;3.10;;;;;;;36.86;25.67;98269.78;6949033;28;20306;-79
2022/06/23 11:45:03;;;;;;;7.73;3.53;;;;;;;37.34;25.42;98258.09;6948359;28;20226;-79
2022/06/23 11:48:36;;;;;;;6.43;3.03;;;;;;;37.20;24.67;98243.94;6955921;28;20700;-79
2022/06/23 11:52:16;;;;;;;9.40;3.20;;;;;;;37.16;24.99;98250.75;6946152;28;20349;-76
2022/06/23 11:55:44;;;;;;;10.00;3.40;;;;;;;36.80;25.07;98237.63;6972080;28;20280;-79
2022/06/23 11:59:17;;;;;;;13.37;3.70;;;;;;;36.84;25.84;98236.44;6972942;28;20220;-78
2022/06/23 12:02:46;;;;;;;8.27;3.63;;;;;;;36.38;26.51;98231.66;6946483;28;20695;-78
2022/06/23 12:06:14;;;;;;;7.73;3.03;;;;;;;37.31;26.01;98246.84;6949305;28;20675;-78
2022/06/23 12:09:43;;;;;;;6.60;3.37;;;;;;;37.64;24.87;98238.16;6969176;28;20210;-78
2022/06/23 12:13:06;;;;;;;6.67;3.40;;;;;;;38.38;24.36;98239.97;6948253;28;20226;-79
2022/06/23 12:16:28;;;;;;;8.67;3.23;;;;;;;38.29;24.43;98239.59;6957356;28;20363;-78
2022/06/23 12:19:55;;;;;;;12.13;3.40;;;;;;;37.73;24.54;98238.63;6947259;28;20314;-78
2022/06/23 12:23:20;;;;;;;6.63;3.30;;;;;;;37.60;24.29;98235.34;6965416;28;20226;-78
2022/06/23 12:26:45;;;;;;;7.37;3.50;;;;;;;37.41;25.00;98212.31;6948947;28;20184;-79
2022/06/23 12:30:11;;;;;;;7.43;3.33;;;;;;;37.14;25.41;98222.22;6973710;28;20596;-79
2022/06/23 12:33:36;;;;;;;7.43;2.90;;;;;;;35.14;27.35;98225.69;6947798;28;20230;-78
2022/06/23 12:37:06;;;;;;;7.83;3.60;;;;;;;36.24;25.94;98209.84;6960813;28;20289;-79
2022/06/23 12:40:31;;;;;;;6.67;3.20;;;;;;;37.45;24.83;98205.53;6970492;28;20201;-79
2022/06/23 12:43:57;;;;;;;7.90;3.30;;;;;;;38.19;24.30;98192.47;6951629;28;20238;-79
2022/06/23 12:47:28;;;;;;;7.10;3.40;;;;;;;36.90;25.54;98180.69;6971622;28;20249;-79
2022/06/23 12:50:59;;;;;;;8.23;3.50;;;;;;;37.31;24.95;98176.53;6965521;28;20230;-78
2022/06/23 12:54:34;;;;;;;11.90;4.10;;;;;;;37.11;25.72;98192.91;6954078;28;20204;-79
2022/06/23 12:58:14;;;;;;;9.20;3.67;;;;;;;36.68;25.86;98173.31;6952405;28;20837;-78
2022/06/23 13:01:39;;;;;;;7.87;3.90;;;;;;;36.04;26.43;98176.75;6967337;28;20218;-79
2022/06/23 13:05:08;;;;;;;8.37;4.00;;;;;;;36.05;27.46;98169.94;6964717;28;20697;-78
2022/06/23 13:08:34;;;;;;;8.07;3.90;;;;;;;37.01;26.67;98173.13;6974400;28;20198;-78
2022/06/23 13:12:01;;;;;;;9.90;4.30;;;;;;;36.69;26.20;98172.13;6978978;28;20226;-78
2022/06/23 13:15:31;;;;;;;8.73;4.17;;;;;;;36.39;27.61;98163.03;6970470;28;20703;-78
2022/06/23 13:18:59;;;;;;;8.87;3.93;;;;;;;35.88;28.01;98160.16;6978454;28;20214;-78
2022/06/23 13:23:25;;;;;;;8.43;3.57;;;;;;;35.95;26.97;98092.06;6977349;28;20287;-78
2022/06/23 13:26:53;;;;;;;10.73;3.90;;;;;;;34.74;28.61;98151.84;6951646;28;20211;-78
2022/06/23 13:30:16;;;;;;;10.30;4.30;;;;;;;33.95;29.78;98153.75;6974001;28;20222;-80
2022/06/23 13:33:44;;;;;;;9.30;3.90;;;;;;;34.59;29.34;98142.44;6982888;28;20241;-79
2022/06/23 13:37:12;;;;;;;7.97;4.73;;;;;;;33.94;30.31;98135.34;6957054;28;20207;-82
2022/06/23 13:40:39;;;;;;;10.10;4.20;;;;;;;35.46;28.59;98106.38;6958877;28;20674;-80
2022/06/23 13:44:08;;;;;;;8.60;4.17;;;;;;;36.59;27.18;98119.44;6978965;28;20246;-78
2022/06/23 13:47:34;;;;;;;10.30;4.17;;;;;;;36.88;27.08;98116.44;6983303;28;20238;-78
2022/06/23 13:51:02;;;;;;;10.77;4.10;;;;;;;37.19;26.24;98095.31;6983535;28;20290;-79
2022/06/23 13:54:30;;;;;;;13.53;4.37;;;;;;;37.34;26.19;98100.59;6981713;28;20209;-79
2022/06/23 13:57:54;;;;;;;8.33;4.13;;;;;;;37.21;25.37;98092.91;6995205;28;20230;-80
2022/06/23 14:01:24;;;;;;;7.03;4.03;;;;;;;36.83;26.32;98083.09;6985457;28;20218;-80
2022/06/23 14:04:50;;;;;;;9.10;4.20;;;;;;;36.91;26.03;98075.50;6983031;28;20230;-79
2022/06/23 14:08:15;;;;;;;8.60;3.73;;;;;;;37.22;25.19;98086.91;6983990;28;20648;-80
2022/06/23 14:11:42;;;;;;;10.83;4.07;;;;;;;36.88;24.89;98059.41;6980308;28;20230;-80
2022/06/23 14:15:09;;;;;;;8.57;4.10;;;;;;;37.04;25.61;98062.69;6955166;28;20199;-79
2022/06/23 14:18:40;;;;;;;10.67;4.10;;;;;;;36.23;26.29;98055.81;6954376;28;20310;-79
2022/06/23 14:22:06;;;;;;;7.13;3.70;;;;;;;36.43;24.65;98035.47;6962553;28;20218;-80
2022/06/23 14:25:31;;;;;;;7.10;4.00;;;;;;;35.08;27.19;98041.44;6983689;28;20354;-79
2022/06/23 14:28:57;;;;;;;9.03;4.27;;;;;;;33.22;28.41;97967.84;6967095;28;20425;-79
2022/06/23 14:32:26;;;;;;;8.63;3.87;;;;;;;35.83;26.48;98042.66;6967949;28;20285;-80
2022/06/23 14:35:52;;;;;;;9.23;3.97;;;;;;;36.55;25.67;98046.38;6982573;28;20627;-80
2022/06/23 14:39:19;;;;;;;11.63;3.97;;;;;;;35.47;27.14;98009.84;6982106;28;20223;-80
2022/06/23 14:42:54;;;;;;;11.13;4.77;;;;;;;35.17;27.94;98048.38;6982940;28;20272;-80
2022/06/23 14:46:23;;;;;;;8.53;4.03;;;;;;;34.25;29.19;98041.91;6983976;28;20210;-80
2022/06/23 14:49:57;;;;;;;8.53;4.20;;;;;;;34.90;28.45;98057.25;6983457;28;20267;-80
2022/06/23 14:53:24;;;;;;;6.63;3.47;;;;;;;34.04;28.91;98039.59;6967182;28;20234;-80
2022/06/23 14:56:48;;;;;;;8.20;3.77;;;;;;;34.18;29.35;98058.56;6977819;28;20202;-80
2022/06/23 15:00:13;;;;;;;10.60;3.83;;;;;;;34.23;29.61;98042.28;6982989;28;20237;-79
2022/06/23 15:03:40;;;;;;;8.27;3.93;;;;;;;35.01;28.76;98027.38;6987516;28;20230;-79
2022/06/23 15:07:08;;;;;;;7.27;4.07;;;;;;;34.61;28.63;98044.03;6989592;28;20202;-80
2022/06/23 15:10:38;;;;;;;8.60;3.37;;;;;;;34.84;28.97;98027.97;6989491;28;20622;-81
2022/06/23 15:14:07;;;;;;;7.90;3.87;;;;;;;35.61;28.12;98017.59;6977775;28;20229;-79
2022/06/23 15:17:31;;;;;;;6.07;3.47;;;;;;;35.73;27.58;98012.50;6997420;28;20186;-80
2022/06/23 15:20:57;;;;;;;9.17;3.60;;;;;;;35.85;27.52;98009.38;6996487;28;20218;-81
2022/06/23 15:24:31;;;;;;;12.53;3.87;;;;;;;34.72;28.50;98006.56;6997334;28;20194;-80
2022/06/23 15:27:57;;;;;;;8.13;3.67;;;;;;;35.53;27.45;98008.28;6995161;28;20190;-80
2022/06/23 15:31:23;;;;;;;9.00;3.70;;;;;;;35.51;28.04;97985.44;6991394;28;20245;-80
2022/06/23 15:34:48;;;;;;;6.73;4.10;;;;;;;35.51;27.03;97967.81;6995936;28;20199;-80
2022/06/23 15:38:42;;;;;;;9.60;4.23;;;;;;;36.13;27.57;97994.75;6982507;28;20207;-80
2022/06/23 15:42:05;;;;;;;8.70;3.97;;;;;;;36.06;27.20;98001.13;6968774;28;20229;-80
2022/06/23 15:45:42;;;;;;;7.67;3.80;;;;;;;36.14;26.91;97954.25;6970701;28;20238;-80
2022/06/23 15:49:07;;;;;;;7.60;3.23;;;;;;;35.84;26.43;97987.34;6961663;28;20202;-80
2022/06/23 15:52:33;;;;;;;7.10;3.20;;;;;;;35.68;26.79;97982.00;6976012;28;20242;-81
2022/06/23 15:55:58;;;;;;;8.00;3.53;;;;;;;35.73;27.40;97973.22;6977223;28;20210;-80
2022/06/23 15:59:22;;;;;;;8.43;3.20;;;;;;;35.52;27.04;97966.59;6977162;28;20226;-79
2022/06/23 16:02:51;;;;;;;9.87;3.27;;;;;;;36.37;25.75;97972.44;6954755;28;20237;-79
2022/06/23 16:06:24;;;;;;;7.37;3.30;;;;;;;36.48;25.81;97976.13;6968486;28;20202;-79
2022/06/23 16:09:49;;;;;;;7.63;2.67;;;;;;;36.24;25.72;97973.19;6971135;28;20774;-80
2022/06/23 16:13:17;;;;;;;8.17;3.27;;;;;;;35.94;27.38;97969.75;6976831;28;20222;-80
2022/06/23 16:16:42;;;;;;;8.47;3.07;;;;;;;35.83;26.22;97954.88;6978791;28;20206;-80
2022/06/23 16:20:08;;;;;;;9.87;3.17;;;;;;;35.77;27.48;97960.03;6973293;28;20245;-80
2022/06/23 16:23:40;;;;;;;5.93;2.50;;;;;;;35.77;26.72;97959.22;6973432;28;20226;-80
2022/06/23 16:27:08;;;;;;;7.17;2.57;;;;;;;35.34;26.78;97957.25;6972476;28;20584;-80
2022/06/23 16:30:35;;;;;;;4.40;2.43;;;;;;;35.27;27.40;97949.59;6986597;28;20224;-80